sensor_id;sensor_type;location;lat;lon;timestamp;P1;durP1;ratioP1;P2;durP2;ratioP2
73104;SDS011;61296;50.526;30.792;2023-01-05T00:11:18;11.43;;;6.63;;
73104;SDS011;61296;50.526;30.792;2023-01-05T00:26:58;12.73;;;6.13;;
73104;SDS011;61296;50.526;30.792;2023-01-05T00:42:17;12.65;;;6.47;;
73104;SDS011;61296;50.526;30.792;2023-01-05T00:57:37;14.52;;;7.10;;
73104;SDS011;61296;50.526;30.792;2023-01-05T01:12:57;13.57;;;6.95;;
73104;SDS011;61296;50.526;30.792;2023-01-05T01:28:17;15.43;;;6.88;;
73104;SDS011;61296;50.526;30.792;2023-01-05T01:43:46;12.25;;;7.38;;
73104;SDS011;61296;50.526;30.792;2023-01-05T01:59:15;15.88;;;7.55;;
73104;SDS011;61296;50.526;30.792;2023-01-05T02:14:40;12.30;;;6.72;;
73104;SDS011;61296;50.526;30.792;2023-01-05T02:45:52;19.42;;;8.38;;
73104;SDS011;61296;50.526;30.792;2023-01-05T03:01:13;19.95;;;7.22;;
73104;SDS011;61296;50.526;30.792;2023-01-05T03:16:40;14.75;;;7.70;;
73104;SDS011;61296;50.526;30.792;2023-01-05T03:32:02;17.25;;;7.93;;
73104;SDS011;61296;50.526;30.792;2023-01-05T03:47:45;21.15;;;9.65;;
73104;SDS011;61296;50.526;30.792;2023-01-05T04:03:05;25.08;;;10.48;;
73104;SDS011;61296;50.526;30.792;2023-01-05T04:18:26;27.23;;;11.57;;
73104;SDS011;61296;50.526;30.792;2023-01-05T04:33:47;28.73;;;13.45;;
73104;SDS011;61296;50.526;30.792;2023-01-05T04:49:10;34.17;;;15.13;;
73104;SDS011;61296;50.526;30.792;2023-01-05T05:04:31;42.05;;;17.67;;
73104;SDS011;61296;50.526;30.792;2023-01-05T05:19:51;42.95;;;16.98;;
73104;SDS011;61296;50.526;30.792;2023-01-05T05:35:13;45.63;;;17.58;;
73104;SDS011;61296;50.526;30.792;2023-01-05T05:50:32;40.97;;;15.40;;
73104;SDS011;61296;50.526;30.792;2023-01-05T06:05:57;35.92;;;14.52;;
73104;SDS011;61296;50.526;30.792;2023-01-05T06:21:17;38.67;;;15.55;;
73104;SDS011;61296;50.526;30.792;2023-01-05T06:36:37;36.92;;;15.25;;
73104;SDS011;61296;50.526;30.792;2023-01-05T06:51:57;34.25;;;15.10;;
73104;SDS011;61296;50.526;30.792;2023-01-05T07:07:16;37.22;;;15.45;;
73104;SDS011;61296;50.526;30.792;2023-01-05T07:22:36;41.47;;;17.63;;
73104;SDS011;61296;50.526;30.792;2023-01-05T07:37:55;45.00;;;17.58;;
73104;SDS011;61296;50.526;30.792;2023-01-05T07:53:14;43.58;;;18.08;;
73104;SDS011;61296;50.526;30.792;2023-01-05T08:08:33;44.33;;;17.13;;
73104;SDS011;61296;50.526;30.792;2023-01-05T08:23:53;47.95;;;19.05;;
73104;SDS011;61296;50.526;30.792;2023-01-05T08:39:13;44.30;;;18.35;;
73104;SDS011;61296;50.526;30.792;2023-01-05T08:54:32;40.42;;;17.20;;
73104;SDS011;61296;50.526;30.792;2023-01-05T09:09:51;45.50;;;18.20;;
73104;SDS011;61296;50.526;30.792;2023-01-05T09:25:10;34.13;;;13.65;;
73104;SDS011;61296;50.526;30.792;2023-01-05T09:40:30;19.52;;;9.85;;
73104;SDS011;61296;50.526;30.792;2023-01-05T09:55:56;20.40;;;10.07;;
73104;SDS011;61296;50.526;30.792;2023-01-05T10:11:17;20.65;;;10.93;;
73104;SDS011;61296;50.526;30.792;2023-01-05T10:58:19;21.17;;;9.63;;
73104;SDS011;61296;50.526;30.792;2023-01-05T11:13:45;17.20;;;9.20;;
73104;SDS011;61296;50.526;30.792;2023-01-05T11:44:26;15.73;;;8.98;;
73104;SDS011;61296;50.526;30.792;2023-01-05T11:59:45;14.18;;;8.15;;
73104;SDS011;61296;50.526;30.792;2023-01-05T14:33:17;15.60;;;7.22;;
73104;SDS011;61296;50.526;30.792;2023-01-05T14:48:42;10.75;;;6.28;;
73104;SDS011;61296;50.526;30.792;2023-01-05T15:04:09;13.27;;;6.78;;
73104;SDS011;61296;50.526;30.792;2023-01-05T15:35:19;11.25;;;6.15;;
73104;SDS011;61296;50.526;30.792;2023-01-05T15:50:47;12.07;;;6.10;;
73104;SDS011;61296;50.526;30.792;2023-01-05T16:06:15;9.23;;;6.05;;
73104;SDS011;61296;50.526;30.792;2023-01-05T16:21:39;15.85;;;7.15;;
73104;SDS011;61296;50.526;30.792;2023-01-05T16:37:05;12.25;;;7.20;;
73104;SDS011;61296;50.526;30.792;2023-01-05T16:52:33;15.05;;;8.52;;
73104;SDS011;61296;50.526;30.792;2023-01-05T17:23:27;13.70;;;7.65;;
73104;SDS011;61296;50.526;30.792;2023-01-05T17:38:47;10.75;;;5.22;;
73104;SDS011;61296;50.526;30.792;2023-01-05T17:54:20;7.65;;;4.90;;
73104;SDS011;61296;50.526;30.792;2023-01-05T18:09:40;6.25;;;3.80;;
73104;SDS011;61296;50.526;30.792;2023-01-05T18:25:00;8.45;;;4.75;;
73104;SDS011;61296;50.526;30.792;2023-01-05T18:40:20;5.53;;;3.35;;
73104;SDS011;61296;50.526;30.792;2023-01-05T18:55:40;10.98;;;2.92;;
73104;SDS011;61296;50.526;30.792;2023-01-05T19:11:00;4.85;;;3.00;;
73104;SDS011;61296;50.526;30.792;2023-01-05T19:26:28;6.00;;;3.30;;
73104;SDS011;61296;50.526;30.792;2023-01-05T19:41:49;5.82;;;3.63;;
73104;SDS011;61296;50.526;30.792;2023-01-05T19:57:09;8.60;;;4.93;;
73104;SDS011;61296;50.526;30.792;2023-01-05T20:12:29;7.07;;;4.10;;
73104;SDS011;61296;50.526;30.792;2023-01-05T20:27:49;5.70;;;3.30;;
73104;SDS011;61296;50.526;30.792;2023-01-05T22:12:20;2.28;;;1.85;;
73104;SDS011;61296;50.526;30.792;2023-01-05T22:27:39;2.70;;;1.75;;
73104;SDS011;61296;50.526;30.792;2023-01-05T22:42:59;2.20;;;1.80;;
73104;SDS011;61296;50.526;30.792;2023-01-05T22:58:18;4.88;;;2.88;;
73104;SDS011;61296;50.526;30.792;2023-01-05T23:13:38;2.95;;;2.28;;
73104;SDS011;61296;50.526;30.792;2023-01-05T23:28:58;2.60;;;2.20;;
73104;SDS011;61296;50.526;30.792;2023-01-05T23:44:17;2.90;;;2.03;;
73104;SDS011;61296;50.526;30.792;2023-01-05T23:59:37;3.90;;;2.40;;
